Time;durP1;ratioP1;P1;durP2;ratioP2;P2;SDS_P1;SDS_P2;PMS_P1;PMS_P2;Temp;Humidity;BMP_temperature;BMP_pressure;BME280_temperature;BME280_humidity;BME280_pressure;Samples;Min_cycle;Max_cycle;Signal;HPM_P1;HPM_P2
2021/04/11 00:00:24;;;;;;;15.30;10.70;;;;;;;;;;5112233;28;20561;-61
2021/04/11 00:02:51;;;;;;;18.40;10.53;;;;;;;;;;5111895;28;20238;-61
2021/04/11 00:05:18;;;;;;;16.43;10.40;;;;;;;;;;5111863;28;20200;-62
2021/04/11 00:07:45;;;;;;;13.93;9.93;;;;;;;;;;5112095;28;20204;-61
2021/04/11 00:10:15;;;;;;;14.33;8.67;;;;;;;;;;5112249;28;20203;-61
2021/04/11 00:12:41;;;;;;;13.47;9.23;;;;;;;;;;5111779;28;20228;-62
2021/04/11 00:15:09;;;;;;;11.30;9.53;;;;;;;;;;5112218;28;20210;-61
2021/04/11 00:17:36;;;;;;;15.87;11.37;;;;;;;;;;5112251;28;20293;-61
2021/04/11 00:20:02;;;;;;;15.53;10.80;;;;;;;;;;5112117;28;20204;-62
2021/04/11 00:22:29;;;;;;;15.87;10.07;;;;;;;;;;5112097;28;20683;-61
2021/04/11 00:24:56;;;;;;;14.60;9.97;;;;;;;;;;5112081;28;20233;-61
2021/04/11 00:27:23;;;;;;;14.80;9.70;;;;;;;;;;5113822;28;20203;-62
2021/04/11 00:29:49;;;;;;;15.17;10.13;;;;;;;;;;5115996;28;20210;-61
2021/04/11 00:32:16;;;;;;;11.07;9.90;;;;;;;;;;5115205;28;20231;-61
2021/04/11 00:34:42;;;;;;;13.13;11.03;;;;;;;;;;5115889;28;20254;-61
2021/04/11 00:37:09;;;;;;;15.83;11.43;;;;;;;;;;5115799;28;20252;-61
2021/04/11 00:39:36;;;;;;;12.23;10.60;;;;;;;;;;5115705;28;20204;-61
2021/04/11 00:42:06;;;;;;;18.07;11.03;;;;;;;;;;5115906;28;20215;-61
2021/04/11 00:44:33;;;;;;;17.47;12.17;;;;;;;;;;5116563;28;20224;-62
2021/04/11 00:47:02;;;;;;;16.33;11.37;;;;;;;;;;5115889;28;20207;-63
2021/04/11 00:49:31;;;;;;;16.07;11.00;;;;;;;;;;5116209;28;20203;-62
2021/04/11 00:51:57;;;;;;;16.83;11.83;;;;;;;;;;5115870;27;20216;-62
2021/04/11 00:54:24;;;;;;;15.63;10.97;;;;;;;;;;5115565;28;20251;-61
2021/04/11 00:56:51;;;;;;;16.37;12.00;;;;;;;;;;5115511;28;20199;-61
2021/04/11 00:59:19;;;;;;;13.07;10.90;;;;;;;;;;5115008;28;20210;-61
2021/04/11 01:01:46;;;;;;;12.57;11.27;;;;;;;;;;5114610;27;20242;-61
2021/04/11 01:04:13;;;;;;;14.50;10.90;;;;;;;;;;5114710;28;20653;-62
2021/04/11 01:06:42;;;;;;;14.30;9.70;;;;;;;;;;5115128;28;20214;-61
2021/04/11 01:09:10;;;;;;;13.17;10.00;;;;;;;;;;5114968;28;20583;-61
2021/04/11 01:11:37;;;;;;;17.30;10.10;;;;;;;;;;5114382;27;20314;-61
2021/04/11 01:14:05;;;;;;;15.30;10.73;;;;;;;;;;5114426;28;20223;-61
2021/04/11 01:16:33;;;;;;;11.77;10.13;;;;;;;;;;5114472;28;20209;-61
2021/04/11 01:19:00;;;;;;;12.13;9.40;;;;;;;;;;5114850;28;20234;-62
2021/04/11 01:21:33;;;;;;;16.67;9.87;;;;;;;;;;5114518;28;20208;-61
2021/04/11 01:24:06;;;;;;;11.07;9.43;;;;;;;;;;5114492;28;20228;-62
2021/04/11 01:26:34;;;;;;;12.33;10.27;;;;;;;;;;5114278;28;20204;-61
2021/04/11 01:29:00;;;;;;;11.70;9.63;;;;;;;;;;5114539;28;20672;-61
2021/04/11 01:31:31;;;;;;;13.93;10.43;;;;;;;;;;5114040;28;20741;-61
2021/04/11 01:33:57;;;;;;;12.63;10.77;;;;;;;;;;5114179;27;20587;-61
2021/04/11 01:36:25;;;;;;;15.97;10.40;;;;;;;;;;5114307;28;20211;-62
2021/04/11 01:38:52;;;;;;;13.00;10.13;;;;;;;;;;5113146;28;20214;-60
2021/04/11 01:41:21;;;;;;;15.10;11.30;;;;;;;;;;5114265;28;20211;-62
2021/04/11 01:43:50;;;;;;;13.43;11.73;;;;;;;;;;5113772;27;20223;-61
2021/04/11 01:46:17;;;;;;;17.13;11.30;;;;;;;;;;5114056;28;20230;-61
2021/04/11 01:48:44;;;;;;;14.57;11.47;;;;;;;;;;5113903;27;20211;-61
2021/04/11 01:51:12;;;;;;;16.30;11.50;;;;;;;;;;5114176;28;20280;-61
2021/04/11 01:53:39;;;;;;;14.67;11.53;;;;;;;;;;5113213;28;20227;-61
2021/04/11 01:56:06;;;;;;;14.00;10.40;;;;;;;;;;5114826;28;20203;-62
2021/04/11 01:58:34;;;;;;;14.87;11.40;;;;;;;;;;5114305;28;20204;-61
2021/04/11 02:01:06;;;;;;;14.17;10.27;;;;;;;;;;5114332;28;20199;-61
2021/04/11 02:03:33;;;;;;;13.40;11.40;;;;;;;;;;5113721;28;20249;-61
2021/04/11 02:06:02;;;;;;;13.50;11.33;;;;;;;;;;5113745;28;20210;-61
2021/04/11 02:08:28;;;;;;;14.17;11.87;;;;;;;;;;5114123;28;20603;-62
2021/04/11 02:10:56;;;;;;;13.37;11.10;;;;;;;;;;5113564;28;20280;-61
2021/04/11 02:13:24;;;;;;;15.10;10.73;;;;;;;;;;5113576;28;20235;-61
2021/04/11 02:15:52;;;;;;;12.93;10.93;;;;;;;;;;5113746;28;20576;-61
2021/04/11 02:18:19;;;;;;;14.77;11.03;;;;;;;;;;5113855;28;20203;-61
2021/04/11 02:20:46;;;;;;;12.60;11.03;;;;;;;;;;5113427;28;20254;-62
2021/04/11 02:23:13;;;;;;;11.37;10.10;;;;;;;;;;5113228;28;20564;-61
2021/04/11 02:25:42;;;;;;;15.13;11.07;;;;;;;;;;5113681;28;20210;-61
2021/04/11 02:28:10;;;;;;;14.00;10.80;;;;;;;;;;5113132;28;20200;-61
2021/04/11 02:30:37;;;;;;;14.90;10.37;;;;;;;;;;5113465;28;20199;-61
2021/04/11 02:33:04;;;;;;;15.30;11.63;;;;;;;;;;5112705;28;20224;-62
2021/04/11 02:35:32;;;;;;;17.60;12.23;;;;;;;;;;5113135;28;20211;-61
2021/04/11 02:37:59;;;;;;;15.33;12.23;;;;;;;;;;5113255;28;20210;-62
2021/04/11 02:40:31;;;;;;;18.03;13.47;;;;;;;;;;5112802;28;20211;-61
2021/04/11 02:42:58;;;;;;;15.70;12.27;;;;;;;;;;5112919;28;20219;-62
2021/04/11 02:45:26;;;;;;;18.27;11.83;;;;;;;;;;5112983;28;20601;-62
2021/04/11 02:47:53;;;;;;;14.70;12.20;;;;;;;;;;5113196;28;20210;-62
2021/04/11 02:50:20;;;;;;;16.17;11.97;;;;;;;;;;5112763;28;20211;-62
2021/04/11 02:52:50;;;;;;;16.13;12.77;;;;;;;;;;5112573;28;20589;-62
2021/04/11 02:55:17;;;;;;;17.73;13.07;;;;;;;;;;5113028;28;20667;-62
2021/04/11 02:57:44;;;;;;;16.57;13.43;;;;;;;;;;5113141;28;20204;-62
2021/04/11 03:00:14;;;;;;;17.20;13.00;;;;;;;;;;5113043;28;20204;-62
2021/04/11 03:02:40;;;;;;;19.43;13.27;;;;;;;;;;5112246;28;20277;-62
2021/04/11 03:05:08;;;;;;;23.43;15.70;;;;;;;;;;5112895;28;20203;-62
2021/04/11 03:07:37;;;;;;;40.77;28.97;;;;;;;;;;5112197;28;20853;-62
2021/04/11 03:10:06;;;;;;;49.30;31.67;;;;;;;;;;5112788;28;20597;-61
2021/04/11 03:12:33;;;;;;;55.73;35.50;;;;;;;;;;5112156;28;20223;-61
2021/04/11 03:15:00;;;;;;;59.40;36.00;;;;;;;;;;5112150;28;20222;-61
2021/04/11 03:17:27;;;;;;;64.77;36.30;;;;;;;;;;5112674;28;20208;-61
2021/04/11 03:19:56;;;;;;;60.33;34.70;;;;;;;;;;5112479;28;20207;-61
2021/04/11 03:22:23;;;;;;;65.40;36.47;;;;;;;;;;5112552;28;20199;-61
2021/04/11 03:24:50;;;;;;;62.53;35.87;;;;;;;;;;5112372;28;20208;-61
2021/04/11 03:27:20;;;;;;;59.50;31.83;;;;;;;;;;5112818;28;20203;-62
2021/04/11 03:29:48;;;;;;;50.67;30.33;;;;;;;;;;5112198;28;20211;-61
2021/04/11 03:32:18;;;;;;;39.77;24.93;;;;;;;;;;5112288;28;20638;-62
2021/04/11 03:34:45;;;;;;;33.00;23.17;;;;;;;;;;5112726;28;20613;-61
2021/04/11 03:37:13;;;;;;;31.10;19.57;;;;;;;;;;5112355;28;20203;-61
2021/04/11 03:39:40;;;;;;;27.77;18.47;;;;;;;;;;5112178;28;20207;-61
2021/04/11 03:42:07;;;;;;;21.27;14.53;;;;;;;;;;5111697;28;20210;-60
2021/04/11 03:44:35;;;;;;;16.67;11.67;;;;;;;;;;5112880;28;20645;-61
2021/04/11 03:47:04;;;;;;;14.47;10.20;;;;;;;;;;5112361;28;20210;-61
2021/04/11 03:49:34;;;;;;;15.43;11.80;;;;;;;;;;5111555;28;20202;-62
2021/04/11 03:52:02;;;;;;;14.80;10.57;;;;;;;;;;5110506;28;20227;-61
2021/04/11 03:54:30;;;;;;;14.00;10.47;;;;;;;;;;5111439;28;20747;-61
2021/04/11 03:57:07;;;;;;;12.40;9.97;;;;;;;;;;5112904;28;20206;-61
2021/04/11 03:59:36;;;;;;;18.03;11.83;;;;;;;;;;5112439;28;20216;-61
2021/04/11 04:02:05;;;;;;;15.63;11.40;;;;;;;;;;5112235;28;20208;-61
2021/04/11 04:04:33;;;;;;;17.33;12.10;;;;;;;;;;5114786;28;20744;-62
2021/04/11 04:07:07;;;;;;;17.73;12.93;;;;;;;;;;5116169;28;20216;-61
2021/04/11 04:09:34;;;;;;;17.47;13.30;;;;;;;;;;5116314;28;20673;-61
2021/04/11 04:12:23;;;;;;;17.40;12.87;;;;;;;;;;5116135;27;20696;-61
2021/04/11 04:14:58;;;;;;;15.07;12.17;;;;;;;;;;5115582;28;20189;-62
2021/04/11 04:17:28;;;;;;;17.87;13.13;;;;;;;;;;5115941;28;20730;-62
2021/04/11 04:20:03;;;;;;;18.77;14.17;;;;;;;;;;5115726;28;20215;-61
2021/04/11 04:22:47;;;;;;;16.73;12.73;;;;;;;;;;5115470;27;20203;-61
2021/04/11 04:25:21;;;;;;;18.97;14.30;;;;;;;;;;5105303;28;20688;-59
2021/04/11 04:27:55;;;;;;;19.20;13.53;;;;;;;;;;5115848;28;20208;-61
2021/04/11 04:30:24;;;;;;;19.63;14.43;;;;;;;;;;5115804;28;20203;-61
2021/04/11 04:33:07;;;;;;;18.43;14.00;;;;;;;;;;5115162;28;20485;-60
2021/04/11 04:35:39;;;;;;;16.67;12.47;;;;;;;;;;5115561;28;20208;-61
2021/04/11 04:38:11;;;;;;;17.27;13.00;;;;;;;;;;5115296;28;20264;-61
2021/04/11 04:40:42;;;;;;;16.73;12.27;;;;;;;;;;5115458;28;20656;-61
2021/04/11 04:43:13;;;;;;;15.90;12.03;;;;;;;;;;5115859;28;20511;-61
2021/04/11 04:45:43;;;;;;;16.57;12.13;;;;;;;;;;5121946;28;20208;-62
2021/04/11 04:48:12;;;;;;;17.60;13.17;;;;;;;;;;5116124;28;20448;-61
2021/04/11 04:50:41;;;;;;;18.23;12.90;;;;;;;;;;5114852;28;20230;-61
2021/04/11 04:53:11;;;;;;;17.73;13.47;;;;;;;;;;5116238;28;21005;-61
2021/04/11 04:55:39;;;;;;;18.13;13.63;;;;;;;;;;5117988;28;20453;-62
2021/04/11 04:58:10;;;;;;;17.50;12.60;;;;;;;;;;5115011;28;20551;-61
2021/04/11 05:00:37;;;;;;;22.10;14.70;;;;;;;;;;5114245;28;20680;-61
2021/04/11 05:03:07;;;;;;;22.20;15.23;;;;;;;;;;5114617;28;20861;-61
2021/04/11 05:05:35;;;;;;;23.63;15.90;;;;;;;;;;5114810;28;20445;-61
2021/04/11 05:08:05;;;;;;;20.73;13.93;;;;;;;;;;5114870;28;20875;-61
2021/04/11 05:10:34;;;;;;;21.83;14.47;;;;;;;;;;5114740;28;20453;-61
2021/04/11 05:13:04;;;;;;;21.83;14.17;;;;;;;;;;5114331;28;20489;-61
2021/04/11 05:15:33;;;;;;;23.53;14.30;;;;;;;;;;5114724;28;20454;-61
2021/04/11 05:18:02;;;;;;;22.60;15.37;;;;;;;;;;5114469;28;20475;-61
2021/04/11 05:20:31;;;;;;;26.53;16.53;;;;;;;;;;5114596;28;20449;-59
2021/04/11 05:23:00;;;;;;;26.13;16.70;;;;;;;;;;5114215;28;20833;-61
2021/04/11 05:25:31;;;;;;;27.47;16.43;;;;;;;;;;5114671;28;20446;-60
2021/04/11 05:27:59;;;;;;;29.73;18.67;;;;;;;;;;5114444;27;20457;-61
2021/04/11 05:30:29;;;;;;;28.90;17.93;;;;;;;;;;5114345;28;20454;-61
2021/04/11 05:32:56;;;;;;;30.70;18.63;;;;;;;;;;5113882;28;20486;-62
2021/04/11 05:35:24;;;;;;;32.33;19.93;;;;;;;;;;5114294;28;20510;-62
2021/04/11 05:37:59;;;;;;;31.03;19.17;;;;;;;;;;5114185;28;20450;-61
2021/04/11 05:40:28;;;;;;;34.10;21.33;;;;;;;;;;5113840;28;20493;-62
2021/04/11 05:42:56;;;;;;;37.60;22.10;;;;;;;;;;5113640;28;20540;-62
2021/04/11 05:45:25;;;;;;;34.33;20.70;;;;;;;;;;5113773;28;20969;-61
2021/04/11 05:47:58;;;;;;;35.20;21.90;;;;;;;;;;5113988;28;20941;-62
2021/04/11 05:50:26;;;;;;;34.93;22.80;;;;;;;;;;5113964;28;20426;-62
2021/04/11 05:52:56;;;;;;;36.43;22.93;;;;;;;;;;5113595;28;20484;-62
2021/04/11 05:55:24;;;;;;;38.10;24.20;;;;;;;;;;5113830;28;20449;-62
2021/04/11 05:57:53;;;;;;;38.43;24.50;;;;;;;;;;5114072;28;20514;-62
2021/04/11 06:00:22;;;;;;;38.13;25.67;;;;;;;;;;5113816;28;20480;-61
2021/04/11 06:02:50;;;;;;;38.10;24.40;;;;;;;;;;5113049;28;20487;-61
2021/04/11 06:05:20;;;;;;;35.47;23.90;;;;;;;;;;5113616;27;20536;-61
2021/04/11 06:07:48;;;;;;;38.00;24.43;;;;;;;;;;5113172;28;20776;-62
2021/04/11 06:10:18;;;;;;;42.00;27.60;;;;;;;;;;5113757;28;20453;-60
2021/04/11 06:12:50;;;;;;;44.03;27.77;;;;;;;;;;5112812;28;20496;-62
2021/04/11 06:15:20;;;;;;;44.73;27.27;;;;;;;;;;5113583;27;20449;-60
2021/04/11 06:17:47;;;;;;;42.03;26.17;;;;;;;;;;5113410;28;20445;-61
2021/04/11 06:20:15;;;;;;;49.27;28.87;;;;;;;;;;5112850;28;20445;-61
2021/04/11 06:22:45;;;;;;;46.57;30.57;;;;;;;;;;5112602;28;20464;-61
2021/04/11 06:25:15;;;;;;;43.57;28.17;;;;;;;;;;5112712;28;20449;-62
2021/04/11 06:27:46;;;;;;;47.20;27.83;;;;;;;;;;5113369;28;20442;-62
2021/04/11 06:30:14;;;;;;;40.97;23.67;;;;;;;;;;5113211;28;20441;-61
2021/04/11 06:32:43;;;;;;;45.33;27.70;;;;;;;;;;5112913;28;20484;-60
2021/04/11 06:35:11;;;;;;;46.33;28.33;;;;;;;;;;5112894;28;20445;-61
2021/04/11 06:37:39;;;;;;;45.23;24.33;;;;;;;;;;5113016;28;20497;-62
2021/04/11 06:40:11;;;;;;;53.33;28.70;;;;;;;;;;5113091;28;20822;-62
2021/04/11 06:42:46;;;;;;;58.20;29.83;;;;;;;;;;5112426;27;21135;-61
2021/04/11 06:45:15;;;;;;;54.17;27.97;;;;;;;;;;5113173;28;20448;-61
2021/04/11 06:47:59;;;;;;;56.70;30.53;;;;;;;;;;5112528;28;20461;-61
2021/04/11 06:50:34;;;;;;;63.73;32.93;;;;;;;;;;5112782;28;20457;-62
2021/04/11 06:53:19;;;;;;;74.80;36.73;;;;;;;;;;5112339;28;20480;-62
2021/04/11 06:55:56;;;;;;;68.33;33.40;;;;;;;;;;5112797;27;20456;-62
2021/04/11 06:58:29;;;;;;;78.27;34.03;;;;;;;;;;5112932;28;20510;-61
2021/04/11 07:01:14;;;;;;;78.33;35.50;;;;;;;;;;5112566;28;20452;-65
2021/04/11 07:04:11;;;;;;;72.93;32.27;;;;;;;;;;5111309;28;20464;-61
2021/04/11 07:06:57;;;;;;;77.13;35.87;;;;;;;;;;5112986;28;20434;-61
2021/04/11 07:09:37;;;;;;;64.53;32.43;;;;;;;;;;5112401;28;20946;-61
2021/04/11 07:12:11;;;;;;;69.40;33.90;;;;;;;;;;5112428;28;20506;-61
2021/04/11 07:14:49;;;;;;;55.80;31.07;;;;;;;;;;5111940;28;20487;-61
2021/04/11 07:17:23;;;;;;;61.93;31.30;;;;;;;;;;5112537;28;20449;-59
2021/04/11 07:20:03;;;;;;;50.17;28.03;;;;;;;;;;5112830;28;20799;-61
2021/04/11 07:22:39;;;;;;;44.20;24.87;;;;;;;;;;5112339;28;20449;-61
2021/04/11 07:25:14;;;;;;;45.33;26.87;;;;;;;;;;5112582;28;20448;-61
2021/04/11 07:27:49;;;;;;;49.90;27.97;;;;;;;;;;5112690;28;20425;-61
2021/04/11 07:30:27;;;;;;;49.90;28.63;;;;;;;;;;5112674;28;20448;-61
2021/04/11 07:33:08;;;;;;;58.57;31.33;;;;;;;;;;5111877;28;20484;-61
2021/04/11 07:35:45;;;;;;;66.60;32.73;;;;;;;;;;5112347;28;20488;-60
2021/04/11 07:38:29;;;;;;;57.57;29.53;;;;;;;;;;5116017;28;20437;-60
2021/04/11 07:41:07;;;;;;;62.47;32.97;;;;;;;;;;5116481;28;20483;-61
2021/04/11 07:43:43;;;;;;;57.13;32.07;;;;;;;;;;5116003;28;20456;-61
2021/04/11 07:46:19;;;;;;;53.00;27.93;;;;;;;;;;5116775;28;20452;-60
2021/04/11 07:48:52;;;;;;;47.97;27.47;;;;;;;;;;5116465;28;20472;-61
2021/04/11 07:51:33;;;;;;;49.57;27.67;;;;;;;;;;5116469;27;20462;-61
2021/04/11 07:54:08;;;;;;;45.07;25.63;;;;;;;;;;5105175;28;20500;-62
2021/04/11 07:56:40;;;;;;;38.47;23.60;;;;;;;;;;5113674;28;21037;-62
2021/04/11 07:59:32;;;;;;;34.07;20.77;;;;;;;;;;5116347;28;20433;-62
2021/04/11 08:02:11;;;;;;;36.70;22.37;;;;;;;;;;5116075;28;20449;-62
2021/04/11 08:04:52;;;;;;;36.83;24.27;;;;;;;;;;5117019;28;20469;-63
2021/04/11 08:07:24;;;;;;;32.50;22.33;;;;;;;;;;5117124;28;20456;-61
2021/04/11 08:09:55;;;;;;;35.43;24.47;;;;;;;;;;5109432;28;20446;-62
2021/04/11 08:12:48;;;;;;;35.20;23.13;;;;;;;;;;5112239;28;20484;-60
2021/04/11 08:15:19;;;;;;;34.73;22.60;;;;;;;;;;5115651;28;20438;-62
2021/04/11 08:18:00;;;;;;;34.77;22.90;;;;;;;;;;5115374;28;20854;-62
2021/04/11 08:20:40;;;;;;;35.20;24.40;;;;;;;;;;5115186;28;20468;-62
2021/04/11 08:23:22;;;;;;;35.87;23.60;;;;;;;;;;5114903;28;20457;-60
2021/04/11 08:25:54;;;;;;;32.87;22.47;;;;;;;;;;5115466;28;20440;-61
2021/04/11 08:28:28;;;;;;;41.33;25.30;;;;;;;;;;5115280;28;20459;-61
2021/04/11 08:30:58;;;;;;;37.43;24.97;;;;;;;;;;5114711;28;20444;-60
2021/04/11 08:33:48;;;;;;;37.70;24.77;;;;;;;;;;5114498;28;20485;-61
2021/04/11 08:36:22;;;;;;;34.30;22.73;;;;;;;;;;5114961;28;20440;-61
2021/04/11 08:39:02;;;;;;;36.27;24.93;;;;;;;;;;5115414;28;20420;-58
2021/04/11 08:41:46;;;;;;;36.17;23.73;;;;;;;;;;5113513;28;20509;-59
2021/04/11 08:44:17;;;;;;;38.90;25.10;;;;;;;;;;5114030;28;20465;-58
2021/04/11 08:46:51;;;;;;;36.47;24.13;;;;;;;;;;5115302;28;20449;-62
2021/04/11 08:49:21;;;;;;;36.50;24.73;;;;;;;;;;5114205;28;20451;-61
2021/04/11 08:51:54;;;;;;;37.33;25.77;;;;;;;;;;5112380;28;20448;-58
2021/04/11 08:54:25;;;;;;;40.07;25.33;;;;;;;;;;5114307;28;20520;-61
2021/04/11 08:56:56;;;;;;;39.80;26.07;;;;;;;;;;5117269;28;20449;-61
2021/04/11 08:59:28;;;;;;;37.87;25.47;;;;;;;;;;5116192;28;20510;-61
2021/04/11 09:02:06;;;;;;;35.63;23.60;;;;;;;;;;5115885;28;20441;-61
2021/04/11 09:04:36;;;;;;;31.40;20.50;;;;;;;;;;5113630;28;20527;-58
2021/04/11 09:07:21;;;;;;;29.03;19.53;;;;;;;;;;5113474;28;20461;-61
2021/04/11 09:09:55;;;;;;;29.47;20.30;;;;;;;;;;5103708;28;20453;-67
2021/04/11 09:12:26;;;;;;;25.77;18.97;;;;;;;;;;5112764;28;20463;-65
2021/04/11 09:14:59;;;;;;;23.60;16.83;;;;;;;;;;5113824;28;20450;-66
2021/04/11 09:17:33;;;;;;;20.37;15.70;;;;;;;;;;5113366;27;20475;-64
2021/04/11 09:20:06;;;;;;;21.37;15.67;;;;;;;;;;5113758;28;20455;-66
2021/04/11 09:22:38;;;;;;;20.53;15.93;;;;;;;;;;5113011;28;20527;-64
2021/04/11 09:25:08;;;;;;;19.10;15.47;;;;;;;;;;5112919;28;20457;-64
2021/04/11 09:27:46;;;;;;;15.80;12.87;;;;;;;;;;5113584;27;20950;-64
2021/04/11 09:30:23;;;;;;;14.97;11.97;;;;;;;;;;5113208;28;20460;-65
2021/04/11 09:33:08;;;;;;;15.57;12.57;;;;;;;;;;5112969;28;21019;-65
2021/04/11 09:35:37;;;;;;;15.57;13.73;;;;;;;;;;5112952;28;20456;-64
2021/04/11 09:38:14;;;;;;;18.17;13.87;;;;;;;;;;5113842;28;20498;-65
2021/04/11 09:40:45;;;;;;;12.37;11.07;;;;;;;;;;5113632;28;20517;-65
2021/04/11 09:43:30;;;;;;;13.40;11.47;;;;;;;;;;5115296;28;20461;-67
2021/04/11 09:46:07;;;;;;;14.90;11.67;;;;;;;;;;5117193;28;20455;-65
2021/04/11 09:48:40;;;;;;;13.17;11.77;;;;;;;;;;5114503;27;20449;-67
2021/04/11 09:51:14;;;;;;;11.23;10.03;;;;;;;;;;5113847;28;20442;-65
2021/04/11 09:54:10;;;;;;;13.87;11.63;;;;;;;;;;5113094;27;20485;-61
2021/04/11 09:56:45;;;;;;;14.23;11.67;;;;;;;;;;5113610;28;20457;-62
2021/04/11 09:59:20;;;;;;;11.73;9.90;;;;;;;;;;5112269;28;20436;-62
2021/04/11 10:01:49;;;;;;;12.27;10.43;;;;;;;;;;5113671;28;20486;-66
2021/04/11 10:04:27;;;;;;;12.53;9.87;;;;;;;;;;5113939;28;20469;-63
2021/04/11 10:07:14;;;;;;;13.27;10.60;;;;;;;;;;5113542;28;20811;-64
2021/04/11 10:09:56;;;;;;;13.43;10.97;;;;;;;;;;5113063;28;20448;-64
2021/04/11 10:12:48;;;;;;;13.73;11.33;;;;;;;;;;5112780;28;21100;-64
2021/04/11 10:15:19;;;;;;;16.30;12.93;;;;;;;;;;5113107;28;20452;-64
2021/04/11 10:18:03;;;;;;;14.97;12.27;;;;;;;;;;5112577;28;20446;-64
2021/04/11 10:20:35;;;;;;;15.77;12.50;;;;;;;;;;5111254;27;20471;-64
2021/04/11 10:23:04;;;;;;;16.93;14.13;;;;;;;;;;5111709;28;20874;-64
2021/04/11 10:25:34;;;;;;;14.53;12.07;;;;;;;;;;5113150;28;20437;-64
2021/04/11 10:28:18;;;;;;;15.23;12.40;;;;;;;;;;5112856;28;20442;-63
2021/04/11 10:30:47;;;;;;;14.03;11.40;;;;;;;;;;5112109;28;20480;-66
2021/04/11 10:33:17;;;;;;;14.10;11.30;;;;;;;;;;5110772;28;20482;-63
2021/04/11 10:35:46;;;;;;;12.13;9.17;;;;;;;;;;5111784;28;20524;-63
2021/04/11 10:38:15;;;;;;;11.87;10.67;;;;;;;;;;5112236;28;20457;-62
2021/04/11 10:40:52;;;;;;;9.83;8.83;;;;;;;;;;5111311;28;20462;-62
2021/04/11 10:43:26;;;;;;;12.23;9.70;;;;;;;;;;5111735;28;20561;-62
2021/04/11 10:45:59;;;;;;;12.50;10.07;;;;;;;;;;5112084;28;20441;-62
2021/04/11 10:48:53;;;;;;;11.47;9.27;;;;;;;;;;5112186;28;20969;-62
2021/04/11 10:51:40;;;;;;;11.00;9.40;;;;;;;;;;5111186;28;20506;-62
2021/04/11 10:54:13;;;;;;;8.97;8.07;;;;;;;;;;5111723;28;20852;-62
2021/04/11 10:56:45;;;;;;;8.50;7.70;;;;;;;;;;5111542;28;20817;-66
2021/04/11 10:59:33;;;;;;;13.50;8.27;;;;;;;;;;5111452;28;20445;-64
2021/04/11 11:02:13;;;;;;;9.10;7.83;;;;;;;;;;5106246;28;20461;-64
2021/04/11 11:05:03;;;;;;;10.63;7.27;;;;;;;;;;5111181;28;20522;-65
2021/04/11 11:07:43;;;;;;;7.73;6.43;;;;;;;;;;5111442;28;20972;-65
2021/04/11 11:10:14;;;;;;;8.23;6.47;;;;;;;;;;5111351;28;20449;-65
2021/04/11 11:12:59;;;;;;;7.60;6.40;;;;;;;;;;5110822;28;20496;-62
2021/04/11 11:15:37;;;;;;;8.20;6.17;;;;;;;;;;5111505;28;20502;-63
2021/04/11 11:18:24;;;;;;;6.60;5.90;;;;;;;;;;5111555;28;20455;-63
2021/04/11 11:20:59;;;;;;;7.17;6.23;;;;;;;;;;5106709;28;20826;-64
2021/04/11 11:23:38;;;;;;;5.90;5.37;;;;;;;;;;5111770;28;20487;-65
2021/04/11 11:26:19;;;;;;;5.47;4.33;;;;;;;;;;5112156;28;21120;-64
2021/04/11 11:28:54;;;;;;;6.67;6.00;;;;;;;;;;5109567;28;20465;-64
2021/04/11 11:31:36;;;;;;;9.03;8.13;;;;;;;;;;5112023;28;20476;-62
2021/04/11 11:34:09;;;;;;;11.23;9.03;;;;;;;;;;5109635;28;20489;-62
2021/04/11 11:36:40;;;;;;;10.67;9.43;;;;;;;;;;5111729;28;20441;-63
2021/04/11 11:39:12;;;;;;;10.80;9.40;;;;;;;;;;5110969;28;20438;-62
2021/04/11 11:41:44;;;;;;;9.87;8.87;;;;;;;;;;5110426;28;20464;-62
2021/04/11 11:44:14;;;;;;;8.33;7.53;;;;;;;;;;5109100;28;20472;-62
2021/04/11 11:46:43;;;;;;;9.37;8.10;;;;;;;;;;5109797;28;20456;-62
2021/04/11 11:49:15;;;;;;;12.67;8.73;;;;;;;;;;5111123;28;20437;-62
2021/04/11 11:51:51;;;;;;;10.20;9.20;;;;;;;;;;5111517;28;20436;-62
2021/04/11 11:54:20;;;;;;;9.33;8.00;;;;;;;;;;5112283;28;20480;-62
2021/04/11 11:56:50;;;;;;;8.27;7.47;;;;;;;;;;5111930;28;20445;-62
2021/04/11 11:59:19;;;;;;;7.43;5.43;;;;;;;;;;5111058;28;20449;-62
2021/04/11 12:01:49;;;;;;;5.40;4.53;;;;;;;;;;5111290;28;20449;-62
2021/04/11 12:04:34;;;;;;;6.93;4.37;;;;;;;;;;5110759;28;20851;-61
2021/04/11 12:07:04;;;;;;;7.37;4.53;;;;;;;;;;5110722;28;20449;-62
2021/04/11 12:09:32;;;;;;;5.10;4.53;;;;;;;;;;5111461;28;20449;-62
2021/04/11 12:12:00;;;;;;;7.23;5.13;;;;;;;;;;5110938;28;20450;-63
2021/04/11 12:14:29;;;;;;;6.13;5.43;;;;;;;;;;5110270;28;20488;-62
2021/04/11 12:17:02;;;;;;;5.93;4.70;;;;;;;;;;5110979;28;20457;-62
2021/04/11 12:19:31;;;;;;;7.10;5.07;;;;;;;;;;5110693;28;20456;-64
2021/04/11 12:21:59;;;;;;;7.80;5.10;;;;;;;;;;5110512;28;20445;-64
2021/04/11 12:24:29;;;;;;;6.40;5.13;;;;;;;;;;5114166;28;20863;-64
2021/04/11 12:26:57;;;;;;;7.90;6.03;;;;;;;;;;5114500;28;21010;-65
2021/04/11 12:29:25;;;;;;;7.30;5.60;;;;;;;;;;5114454;28;20510;-64
2021/04/11 12:31:54;;;;;;;6.37;5.50;;;;;;;;;;5114161;28;20445;-64
2021/04/11 12:34:27;;;;;;;6.53;5.53;;;;;;;;;;5114599;28;20489;-65
2021/04/11 12:36:58;;;;;;;7.13;6.17;;;;;;;;;;5114488;28;20449;-64
2021/04/11 12:39:26;;;;;;;6.27;5.43;;;;;;;;;;5115322;28;20593;-66
2021/04/11 12:41:59;;;;;;;6.83;5.00;;;;;;;;;;5114831;28;20517;-65
2021/04/11 12:44:31;;;;;;;6.67;5.73;;;;;;;;;;5114981;28;20865;-66
2021/04/11 12:47:02;;;;;;;6.47;4.50;;;;;;;;;;5114714;28;20452;-66
2021/04/11 12:49:31;;;;;;;5.57;4.70;;;;;;;;;;5114312;28;20441;-66
2021/04/11 12:52:02;;;;;;;7.40;4.93;;;;;;;;;;5114725;28;20536;-65
2021/04/11 12:54:32;;;;;;;7.33;4.60;;;;;;;;;;5114435;28;20485;-66
2021/04/11 12:57:02;;;;;;;4.73;4.13;;;;;;;;;;5114922;28;20445;-66
2021/04/11 12:59:32;;;;;;;6.90;4.70;;;;;;;;;;5114749;28;20448;-65
2021/04/11 13:02:06;;;;;;;6.13;4.13;;;;;;;;;;5116087;27;20442;-64
2021/04/11 13:04:35;;;;;;;7.60;5.43;;;;;;;;;;5115274;28;20464;-64
2021/04/11 13:07:06;;;;;;;7.30;4.53;;;;;;;;;;5114370;27;20456;-64
2021/04/11 13:09:39;;;;;;;5.33;4.00;;;;;;;;;;5116056;28;20821;-64
2021/04/11 13:12:11;;;;;;;4.20;3.80;;;;;;;;;;5117122;28;20450;-64
2021/04/11 13:14:40;;;;;;;4.07;3.77;;;;;;;;;;5118537;28;21144;-62
2021/04/11 13:17:09;;;;;;;6.23;4.43;;;;;;;;;;5115537;28;20444;-62
2021/04/11 13:19:38;;;;;;;6.57;4.33;;;;;;;;;;5115695;28;20870;-63
2021/04/11 13:22:09;;;;;;;5.60;4.17;;;;;;;;;;5114388;28;20449;-64
2021/04/11 13:24:38;;;;;;;6.77;4.67;;;;;;;;;;5113695;27;21176;-63
2021/04/11 13:27:08;;;;;;;5.33;4.40;;;;;;;;;;5114505;28;20443;-62
2021/04/11 13:29:38;;;;;;;7.00;4.80;;;;;;;;;;5114036;28;20204;-62
2021/04/11 13:32:11;;;;;;;8.53;4.70;;;;;;;;;;5114284;28;20445;-62
2021/04/11 13:34:41;;;;;;;6.00;5.03;;;;;;;;;;5112860;28;20890;-62
2021/04/11 13:37:08;;;;;;;7.43;4.97;;;;;;;;;;5114443;28;20445;-62
2021/04/11 13:39:36;;;;;;;7.70;5.20;;;;;;;;;;5114051;28;20213;-60
2021/04/11 13:42:15;;;;;;;8.60;6.10;;;;;;;;;;5113363;28;20480;-61
2021/04/11 13:44:47;;;;;;;8.43;5.93;;;;;;;;;;5113647;28;20223;-63
2021/04/11 13:47:17;;;;;;;9.13;6.47;;;;;;;;;;5113967;28;20453;-62
2021/04/11 13:49:47;;;;;;;9.80;7.30;;;;;;;;;;5113872;28;20450;-62
2021/04/11 13:52:16;;;;;;;9.47;6.97;;;;;;;;;;5113847;28;20253;-62
2021/04/11 13:54:48;;;;;;;8.00;6.37;;;;;;;;;;5111883;27;20482;-63
2021/04/11 13:57:21;;;;;;;11.93;6.83;;;;;;;;;;5113112;28;20340;-63
2021/04/11 13:59:54;;;;;;;9.93;7.30;;;;;;;;;;5112706;27;20453;-62
2021/04/11 14:02:24;;;;;;;14.83;10.13;;;;;;;;;;5112558;28;20446;-62
2021/04/11 14:04:55;;;;;;;6.40;5.70;;;;;;;;;;5112056;28;20456;-63
2021/04/11 14:07:25;;;;;;;6.60;4.90;;;;;;;;;;5113008;28;20790;-62
2021/04/11 14:09:55;;;;;;;7.47;2.80;;;;;;;;;;5113294;28;20441;-61
2021/04/11 14:12:24;;;;;;;4.10;3.13;;;;;;;;;;5113266;28;20203;-61
2021/04/11 14:14:53;;;;;;;5.77;3.70;;;;;;;;;;5112222;28;20485;-63
2021/04/11 14:17:25;;;;;;;4.93;3.40;;;;;;;;;;5112162;28;20453;-62
2021/04/11 14:19:58;;;;;;;4.97;3.90;;;;;;;;;;5112189;28;20211;-63
2021/04/11 14:22:27;;;;;;;5.57;3.50;;;;;;;;;;5111992;28;20445;-65
2021/04/11 14:24:58;;;;;;;5.07;3.37;;;;;;;;;;5110478;28;20442;-63
2021/04/11 14:27:29;;;;;;;5.83;3.50;;;;;;;;;;5111370;28;20442;-64
2021/04/11 14:30:01;;;;;;;7.10;3.60;;;;;;;;;;5112920;28;20445;-64
2021/04/11 14:32:31;;;;;;;4.83;3.70;;;;;;;;;;5111037;28;20208;-64
2021/04/11 14:35:04;;;;;;;7.10;3.97;;;;;;;;;;5111430;28;20485;-63
2021/04/11 14:37:34;;;;;;;5.80;3.80;;;;;;;;;;5112401;28;20450;-63
2021/04/11 14:40:02;;;;;;;5.43;4.07;;;;;;;;;;5112659;28;20622;-63
2021/04/11 14:42:31;;;;;;;5.20;3.37;;;;;;;;;;5111037;28;20803;-64
2021/04/11 14:44:59;;;;;;;4.57;2.93;;;;;;;;;;5111747;27;20218;-63
2021/04/11 14:47:32;;;;;;;4.53;2.60;;;;;;;;;;5111726;28;20454;-64
2021/04/11 14:50:07;;;;;;;6.83;3.10;;;;;;;;;;5112062;28;20203;-64